Latest Weather Observations for Moomba Airport

IDS60801

Issued at 4:51 pm CST Thursday 18 August 2022 (issued every 10 minutes, with the page automatically refreshed every 10 minutes)

About weather observations | Map of weather stations | Latest weather observations for SA | Other Formats
Station Details ID: 017123 Name: MOOMBA AIRPORT Lat: -28.10 Lon: 140.20 Height: 37.8 m
Data from the previous 72 hours. | See also: Recent months at Moomba Airport
Date/Time
CST
Temp
°C
App
Temp
°C
Dew
Point
°C
Rel
Hum
%
Delta-T
°C
Wind Press
QNH
hPa
Press
MSL
hPa
Rain since
9am
mm
Dir  Spd
km/h
Gust
km/h
Spd
kts
Gust
kts
18/04:30pm 28.0 19.7 -2.0 14 13.7 NW 32 41 17 22 1010.7 1010.7 0.0
18/04:00pm 28.0 19.5 -2.0 14 13.6 NW 33 44 18 24 1010.5 1010.5 0.0
18/03:30pm 28.0 19.3 -3.0 13 13.9 NNW 33 41 18 22 1010.1 1010.1 0.0
18/03:00pm 27.8 18.0 -3.1 13 13.8 NNW 39 48 21 26 1010.2 1010.2 0.0
18/02:30pm 27.8 18.9 -2.1 14 13.6 NNW 35 48 19 26 1010.5 1010.5 0.0
18/02:00pm 27.3 18.4 -1.6 15 13.2 N 35 46 19 25 1011.0 1011.0 0.0
18/01:30pm 26.9 18.4 -1.9 15 13.0 NNW 33 44 18 24 1011.6 1011.6 0.0
18/01:00pm 26.2 17.7 -1.6 16 12.6 NNW 33 44 18 24 1012.2 1012.2 0.0
18/12:30pm 25.4 17.3 -0.6 18 11.9 NNW 32 44 17 24 1013.0 1013.0 0.0
18/12:00pm 24.3 16.2 -0.1 20 11.2 NNW 32 39 17 21 1013.8 1013.8 0.0
18/11:30am 23.7 16.0 0.1 21 10.8 NNW 30 41 16 22 1014.4 1014.4 0.0
18/11:00am 23.0 15.1 0.8 23 10.2 NNW 32 41 17 22 1014.6 1014.6 0.0
18/10:30am 22.2 14.2 1.8 26 9.5 NNW 33 41 18 22 1015.2 1015.2 0.0
18/10:00am 20.9 12.8 1.2 27 9.0 N 33 43 18 23 1015.3 1015.3 0.0
18/09:30am 19.7 11.9 1.7 30 8.2 N 32 43 17 23 1015.3 1015.3 0.0
18/09:00am 17.4 10.5 2.6 37 6.7 N 28 33 15 18 1015.5 1015.5 0.0
18/08:30am 15.1 9.0 3.0 44 5.5 N 24 32 13 17 1015.5 1015.5 0.0
18/08:00am 11.6 6.4 2.6 54 3.9 NNE 19 22 10 12 1015.6 1015.6 0.0
18/07:30am 9.5 4.6 1.9 59 3.2 NNE 17 20 9 11 1015.6 1015.6 0.0
18/07:00am 7.6 2.5 1.0 63 2.7 NNE 17 20 9 11 1015.4 1015.4 0.0
18/06:30am 7.6 2.2 1.0 63 2.6 N 19 20 10 11 1015.3 1015.3 0.0
18/06:00am 7.4 1.9 0.6 62 2.7 N 19 22 10 12 1014.8 1014.8 0.0
18/05:30am 7.6 2.1 0.3 60 2.9 NNE 19 20 10 11 1014.9 1014.9 0.0
18/05:00am 7.4 1.9 0.4 61 2.8 NNE 19 20 10 11 1014.9 1014.9 0.0
18/04:30am 7.0 2.2 0.0 61 2.7 NNE 15 17 8 9 1015.1 1015.1 0.0
18/04:00am 7.4 2.2 0.2 60 2.8 N 17 19 9 10 1015.3 1015.3 0.0
18/03:30am 8.2 3.0 0.2 57 3.2 N 17 19 9 10 1015.7 1015.7 0.0
18/03:00am 8.0 3.2 0.5 59 3.0 NNE 15 17 8 9 1016.2 1016.2 0.0
18/02:30am 9.5 5.2 1.2 56 3.4 N 13 17 7 9 1016.4 1016.4 0.0
18/02:00am 9.9 4.8 0.8 53 3.7 N 17 19 9 10 1016.0 1016.0 0.0
18/01:30am 10.4 4.7 0.7 51 4.0 N 20 22 11 12 1016.4 1016.4 0.0
18/01:00am 9.4 5.0 0.1 52 3.7 N 13 15 7 8 1017.1 1017.1 0.0
18/12:30am 10.9 5.8 0.6 49 4.2 N 17 19 9 10 1017.1 1017.1 0.0
18/12:00am 11.4 6.2 0.2 46 4.6 N 17 20 9 11 1017.3 1017.3 0.0
 
Date/Time
CST
Temp
°C
App
Temp
°C
Dew
Point
°C
Rel
Hum
%
Delta-T
°C
Wind Press
QNH
hPa
Press
MSL
hPa
Rain since
9am
mm
Dir  Spd
km/h
Gust
km/h
Spd
kts
Gust
kts
17/11:30pm 12.5 7.0 0.3 43 5.1 N 19 22 10 12 1017.4 1017.4 0.0
17/11:00pm 12.1 7.3 0.5 45 4.8 N 15 19 8 10 1017.6 1017.6 0.0
17/10:30pm 12.5 7.8 0.9 45 4.9 N 15 19 8 10 1017.8 1017.8 0.0
17/10:00pm 12.0 8.1 1.1 47 4.6 N 11 15 6 8 1018.0 1018.0 0.0
17/09:30pm 12.5 8.2 1.2 46 4.8 NNE 13 15 7 8 1018.2 1018.2 0.0
17/09:00pm 12.9 8.6 1.3 45 4.9 N 13 15 7 8 1018.5 1018.5 0.0
17/08:30pm 12.7 8.4 1.1 45 4.9 NNE 13 15 7 8 1018.9 1018.9 0.0
17/08:00pm 13.9 10.4 1.2 42 5.5 NNE 9 11 5 6 1018.9 1018.9 0.0
17/07:30pm 14.8 11.3 1.3 40 5.8 N 9 11 5 6 1018.8 1018.8 0.0
17/07:00pm 16.7 12.5 1.6 36 6.7 N 13 17 7 9 1018.5 1018.5 0.0
17/06:30pm 17.1 12.1 1.5 35 6.9 N 17 19 9 10 1018.6 1018.6 0.0
17/06:00pm 18.2 13.9 0.8 31 7.7 N 13 15 7 8 1018.5 1018.5 0.0
17/05:30pm 20.6 15.2 1.5 28 8.7 NNW 19 22 10 12 1018.4 1018.4 0.0
17/05:00pm 21.6 16.1 1.8 27 9.2 NNW 20 26 11 14 1018.4 1018.4 0.0
17/04:30pm 22.4 17.6 2.5 27 9.4 N 17 24 9 13 1018.1 1018.1 0.0
17/04:00pm 22.3 17.0 1.9 26 9.5 N 19 26 10 14 1018.1 1018.1 0.0
17/03:30pm 22.4 16.9 2.0 26 9.5 N 20 28 11 15 1018.2 1018.2 0.0
17/03:00pm 22.3 17.0 1.9 26 9.5 N 19 24 10 13 1018.6 1018.6 0.0
17/02:30pm 22.3 16.9 2.4 27 9.4 N 20 28 11 15 1018.9 1018.9 0.0
17/02:00pm 22.2 17.1 2.8 28 9.2 N 19 26 10 14 1019.3 1019.3 0.0
17/01:30pm 21.6 17.2 2.8 29 8.9 N 15 24 8 13 1020.0 1020.0 0.0
17/01:00pm 21.7 17.0 3.4 30 8.8 N 17 24 9 13 1020.4 1020.4 0.0
17/12:30pm 21.1 16.1 3.8 32 8.3 NNE 19 30 10 16 1020.9 1020.9 0.0
17/12:00pm 20.2 15.5 3.4 33 7.9 NNE 17 24 9 13 1021.8 1021.8 0.0
17/11:30am 20.0 15.9 4.1 35 7.6 NNE 15 24 8 13 1022.3 1022.3 0.0
17/11:00am 19.3 15.2 4.3 37 7.2 NNE 15 22 8 12 1023.0 1023.0 0.0
17/10:30am 18.4 14.0 4.6 40 6.6 NE 17 20 9 11 1023.5 1023.5 0.0
17/10:00am 17.7 13.3 5.0 43 6.1 NE 17 20 9 11 1023.4 1023.4 0.0
17/09:30am 16.4 12.5 5.4 48 5.3 ENE 15 19 8 10 1023.3 1023.3 0.0
17/09:00am 15.1 10.7 5.0 51 4.7 ENE 17 22 9 12 1023.2 1023.2 0.0
17/08:30am 12.9 9.3 4.8 58 3.7 ENE 13 17 7 9 1022.9 1022.9 0.0
17/08:00am 10.4 7.4 4.3 66 2.7 NE 9 11 5 6 1022.9 1022.9 0.0
17/07:30am 7.9 5.0 4.5 79 1.5 NE 9 9 5 5 1022.6 1022.6 0.0
17/07:00am 5.1 2.2 2.8 85 0.9 NE 7 7 4 4 1022.3 1022.3 0.0
17/06:30am 4.9 1.6 2.6 85 0.9 ENE 9 9 5 5 1021.8 1021.8 0.0
17/06:00am 5.9 3.1 3.2 83 1.1 ENE 7 7 4 4 1021.2 1021.2 0.0
17/05:30am 5.3 2.5 3.0 85 0.9 ENE 7 7 4 4 1020.8 1020.8 0.0
17/05:00am 4.8 1.5 2.2 83 1.0 ENE 9 9 5 5 1020.7 1020.7 0.0
17/04:30am 6.0 3.1 2.8 80 1.3 ENE 7 9 4 5 1020.2 1020.2 0.0
17/04:00am 5.9 4.3 2.5 79 1.4 CALM 0 0 0 0 1020.5 1020.5 0.0
17/03:30am 6.9 5.4 3.2 77 1.6 CALM 0 0 0 0 1020.6 1020.6 0.0
17/03:00am 6.8 4.1 2.9 76 1.6 ENE 6 7 3 4 1020.4 1020.4 0.0
17/02:30am 7.7 5.1 3.2 73 1.9 E 6 7 3 4 1020.6 1020.6 0.0
17/02:00am 7.5 4.7 3.0 73 1.9 E 7 9 4 5 1020.8 1020.8 0.0
17/01:30am 8.3 5.7 3.0 69 2.2 E 6 7 3 4 1021.1 1021.1 0.0
17/01:00am 8.6 7.1 3.2 69 2.3 CALM 0 0 0 0 1021.3 1021.3 0.0
17/12:30am 8.3 5.5 3.0 69 2.2 ESE 7 9 4 5 1021.3 1021.3 0.0
17/12:00am 8.3 5.5 3.0 69 2.2 E 7 9 4 5 1021.5 1021.5 0.0
 
Date/Time
CST
Temp
°C
App
Temp
°C
Dew
Point
°C
Rel
Hum
%
Delta-T
°C
Wind Press
QNH
hPa
Press
MSL
hPa
Rain since
9am
mm
Dir  Spd
km/h
Gust
km/h
Spd
kts
Gust
kts
16/11:30pm 9.9 6.3 3.0 62 3.0 ESE 11 13 6 7 1021.4 1021.4 0.0
16/11:00pm 12.3 8.9 3.8 56 3.8 SE 11 15 6 8 1021.6 1021.6 0.0
16/10:30pm 12.7 8.8 3.6 54 4.1 S 13 17 7 9 1022.0 1022.0 0.0
16/10:00pm 11.4 7.8 2.9 56 3.7 S 11 17 6 9 1022.1 1022.1 0.0
16/09:30pm 12.1 8.6 3.6 56 3.8 S 11 13 6 7 1022.0 1022.0 0.0
16/09:00pm 11.8 9.0 3.3 56 3.7 SSW 7 9 4 5 1021.8 1021.8 0.0
16/08:30pm 12.2 9.6 3.2 54 4.0 SSW 6 9 3 5 1021.6 1021.6 0.0
16/08:00pm 12.5 9.3 2.9 52 4.2 SW 9 11 5 6 1021.2 1021.2 0.0
16/07:30pm 13.7 10.5 3.2 49 4.7 S 9 11 5 6 1020.8 1020.8 0.0
16/07:00pm 14.4 11.2 2.9 46 5.1 SSW 9 9 5 5 1020.6 1020.6 0.0
16/06:30pm 15.6 12.4 3.1 43 5.7 S 9 13 5 7 1020.1 1020.1 0.0
16/06:00pm 16.7 12.7 2.7 39 6.3 S 13 17 7 9 1019.8 1019.8 0.0
16/05:30pm 17.7 12.9 2.8 37 6.8 S 17 22 9 12 1019.4 1019.4 0.0
16/05:00pm 18.0 13.3 3.1 37 6.9 S 17 22 9 12 1018.8 1018.8 0.0
16/04:30pm 18.3 13.6 3.4 37 6.9 SSE 17 24 9 13 1018.5 1018.5 0.0
16/04:00pm 18.6 13.9 2.9 35 7.3 SSE 17 28 9 15 1018.5 1018.5 0.0
16/03:30pm 18.5 13.4 2.8 35 7.2 S 19 28 10 15 1018.8 1018.8 0.0
16/03:00pm 18.6 13.5 3.3 36 7.1 S 19 30 10 16 1018.8 1018.8 0.0
16/02:30pm 18.5 13.4 3.9 38 6.9 S 20 30 11 16 1019.0 1019.0 0.0
16/02:00pm 18.5 13.8 5.0 41 6.5 S 19 30 10 16 1019.3 1019.3 0.0
16/01:30pm 18.2 12.8 4.7 41 6.5 S 22 32 12 17 1019.5 1019.5 0.0
16/01:00pm 17.9 13.1 5.5 44 6.0 S 20 32 11 17 1019.9 1019.9 0.0
16/12:30pm 17.7 12.5 5.6 45 5.9 S 22 30 12 16 1020.3 1020.3 0.0
16/12:00pm 17.2 12.1 5.8 47 5.5 S 22 32 12 17 1020.5 1020.5 0.0
16/11:30am 16.7 11.3 6.5 51 5.0 S 24 32 13 17 1020.6 1020.6 0.0
16/11:00am 16.3 11.4 7.0 54 4.6 S 22 32 12 17 1020.9 1020.9 0.0
16/10:30am 15.2 10.3 7.0 58 4.0 S 22 30 12 16 1020.9 1020.9 0.0
16/10:00am 14.2 8.9 6.8 61 3.6 S 24 32 13 17 1020.7 1020.7 0.0
16/09:30am 13.5 7.9 7.1 65 3.1 S 26 33 14 18 1020.5 1020.5 0.0
16/09:00am 12.5 7.2 7.0 69 2.6 S 24 33 13 18 1020.3 1020.3 0.0
16/08:30am 11.5 6.6 6.8 73 2.2 S 22 33 12 18 1019.8 1019.8 0.0
16/08:00am 10.7 6.2 6.8 77 1.8 SSW 20 32 11 17 1019.3 1019.3 0.0
16/07:30am 9.4 5.0 6.7 83 1.3 SW 19 24 10 13 1018.7 1018.7 0.0
16/07:00am 8.6 4.6 6.6 87 0.9 SW 17 22 9 12 1018.2 1018.2 0.0
16/06:30am 8.5 4.4 6.3 86 1.0 SW 17 22 9 12 1017.7 1017.7 0.0
16/06:00am 8.9 4.8 6.3 84 1.2 SW 17 22 9 12 1017.1 1017.1 0.0
16/05:30am 9.2 4.7 6.3 82 1.3 SW 19 24 10 13 1016.7 1016.7 0.0
16/05:00am 9.6 4.6 6.3 80 1.5 SW 22 28 12 15 1016.3 1016.3 0.0
16/04:30am 9.6 5.5 6.1 79 1.6 SW 17 22 9 12 1016.0 1016.0 0.0
16/04:00am 10.0 5.9 6.0 76 1.8 SW 17 20 9 11 1015.9 1015.9 0.0
16/03:30am 10.5 5.8 6.1 74 2.0 SW 20 26 11 14 1015.8 1015.8 0.0
16/03:00am 11.2 5.7 6.1 71 2.4 SW 24 30 13 16 1015.7 1015.7 0.0
16/02:30am 11.7 5.9 6.4 70 2.5 SW 26 35 14 19 1015.9 1015.9 0.0
16/02:00am 12.0 6.3 6.9 71 2.4 SW 26 39 14 21 1016.1 1016.1 0.0
16/01:30am 11.9 7.4 7.0 72 2.3 SW 20 26 11 14 1016.1 1016.1 0.0
16/01:00am 12.7 7.1 7.0 68 2.8 SW 26 32 14 17 1016.0 1016.0 0.0
16/12:30am 13.2 7.6 7.2 67 2.9 SW 26 37 14 20 1016.0 1016.0 0.0
16/12:00am 13.7 6.9 6.8 63 3.3 SSW 32 39 17 21 1015.6 1015.6 0.0
 
Date/Time
CST
Temp
°C
App
Temp
°C
Dew
Point
°C
Rel
Hum
%
Delta-T
°C
Wind Press
QNH
hPa
Press
MSL
hPa
Rain since
9am
mm
Dir  Spd
km/h
Gust
km/h
Spd
kts
Gust
kts
15/11:44pm 14.1 7.4 5.7 57 4.0 SW 30 44 16 24 1015.6 1015.6 0.0
15/11:30pm 13.3 8.2 4.2 54 4.1 WSW 20 24 11 13 1015.5 1015.5 0.0
15/11:00pm 13.1 8.5 3.7 53 4.2 WSW 17 20 9 11 1015.0 1015.0 0.0
15/10:30pm 13.6 8.9 3.4 50 4.6 WSW 17 22 9 12 1015.1 1015.1 0.0
15/10:00pm 14.3 9.1 3.5 48 4.9 WSW 20 26 11 14 1015.1 1015.1 0.0
15/09:30pm 14.4 9.3 3.2 47 5.0 W 19 22 10 12 1014.8 1014.8 0.0
15/09:00pm 14.8 9.8 3.6 47 5.1 W 19 24 10 13 1014.6 1014.6 0.0
15/08:30pm 15.1 10.1 3.6 46 5.3 W 19 22 10 12 1014.4 1014.4 0.0
15/08:00pm 15.3 10.7 3.8 46 5.3 W 17 22 9 12 1014.0 1014.0 0.0
15/07:30pm 15.8 11.2 3.6 44 5.6 W 17 22 9 12 1013.9 1013.9 0.0
15/07:00pm 16.7 11.0 3.1 40 6.2 W 22 32 12 17 1013.6 1013.6 0.0
15/06:30pm 17.4 10.7 1.4 34 7.1 W 26 32 14 17 1013.1 1013.1 0.0
15/06:00pm 18.3 10.5 1.8 33 7.5 WSW 32 43 17 23 1012.7 1012.7 0.0
15/05:30pm 19.3 11.9 3.9 36 7.3 WSW 32 39 17 21 1012.2 1012.2 0.0
15/05:00pm 20.1 12.0 3.3 33 7.9 WSW 35 44 19 24 1011.8 1011.8 0.0

Other formats

Comma delimited format used in spreadsheet applications
http://www.bom.gov.au/fwo/IDS60801/IDS60801.95481.axf

JavaScript Object Notation format (JSON) in row-major order
http://www.bom.gov.au/fwo/IDS60801/IDS60801.95481.json

Data quality

Most of these data are generated automatically and are frequently updated. Quality checks on data are not normally performed. It is possible for incorrect values to appear. Refer to information at About Latest Weather Observations and please check the disclaimer before using these data.